Aérodrome :
LOGIN :

S'inscrire | Disclaimer

   EN    FR    IT 

 










Légende :    VFR   VFR Marginal   IFR   IFR Intensif   IFR Très Intensif
Visi : 
Plafond : 
>= 8 km
>= 3000ft
5 à 8 km
1000 à 3000 ft
1500m à 5 km
500 à 1000 ft
800 à 1500m
200 à 500 ft
< 800m
< 200 ft
Symboles :   Orages  Brouillard  Fortes neiges  Fortes précipitations  Vent > 20 kt
SIGMETs :   Divers  Orages  Givrage  Turbulence  Onde Orograph.  Cendres Volcan.







- Altitude de l'aérodrome : 416 ft
- Code IATA : OVD


LEAS - Asturias

DERNIER METAR :
  • 151230Z 09015KT 060V120 9999 FEW024 24/16 Q1019 NOSIG

METARs EXPIRÉS :
  • 151200Z 09014KT 050V160 9999 FEW024 24/16 Q1019 NOSIG
  • 151130Z 09016G26KT 050V130 9999 FEW026 24/16 Q1019 NOSIG
  • 151100Z 09014KT 050V120 9999 FEW025 24/16 Q1019 NOSIG
  • 151030Z 09011KT 050V150 9999 FEW025 24/16 Q1019 NOSIG
  • 151000Z 09013KT 050V120 9999 FEW025 23/15 Q1019 NOSIG

TAF TAF LEAS
Valide du 15 à 09h jusqu'au 16 à 09h UTC


150800Z 1509/1609 12005KT 9999 FEW020 TX24/1514Z TN17/1606Z
BECMG 1509/1512 06010KT
PROB30
TEMPO 1510/1515 06015G25KT
BECMG 1518/1521 VRB05KT
TEMPO 1522/1609 3000 BR BKN010
PROB40
TEMPO 1604/1609 1400 RADZ BKN005
Pas de NOTAMs connus pour ce terrain.
1 SIGMET publié pour la FIR Madrid (LECM) :
 
Orages noyés dans la masse
LECM SIGMET 1 VALID 151237/151600 LEVA
LECM MADRID FIR/UIR EMBD TS OBS AT 1237Z E OF LINE N4055 W002 - N3646 W00404 TOP FL410 STNR NC=



MET'MAP, la Météo Aéronautique d'un coup d'oeil ! - Copyright ORBIFLY Décembre 2007 - Disclaimer

ORBIFLY MET'MAP TEAM :

Programmation & Développement : Alexandra Zaïnal
Conception & Développement : Baudouin d'Aumeries
Co-Programmation & Développement : Marc-Olivier Méhu
Soutien technique & logistique : Manuel Goepfert

Contact : metmap@orbifly.com




SOURCES & CREDITS :

   NOAA